Time;durP1;ratioP1;P1;durP2;ratioP2;P2;SDS_P1;SDS_P2;PMS_P1;PMS_P2;Temp;Humidity;BMP_temperature;BMP_pressure;BME280_temperature;BME280_humidity;BME280_pressure;Samples;Min_cycle;Max_cycle;Signal;HPM_P1;HPM_P2
2022/08/25 00:01:22;;;;;;;5.88;3.90;;;14.40;99.90;;;;;;4977030;28;20124;-63
2022/08/25 00:03:53;;;;;;;5.05;3.38;;;14.30;99.90;;;;;;4994563;28;20053;-63
2022/08/25 00:06:20;;;;;;;4.82;4.35;;;14.30;99.90;;;;;;4994720;28;20521;-63
2022/08/25 00:08:48;;;;;;;4.95;3.90;;;14.20;99.90;;;;;;4995110;28;20073;-64
2022/08/25 00:11:18;;;;;;;5.70;3.92;;;14.20;99.90;;;;;;4977245;28;20641;-65
2022/08/25 00:13:49;;;;;;;4.18;3.70;;;14.20;99.90;;;;;;4994053;28;20042;-63
2022/08/25 00:16:18;;;;;;;5.70;4.40;;;14.10;99.90;;;;;;4976687;28;20924;-63
2022/08/25 00:18:49;;;;;;;7.40;4.65;;;14.10;99.90;;;;;;4977506;28;20471;-64
2022/08/25 00:21:16;;;;;;;4.60;3.95;;;14.10;99.90;;;;;;4994280;28;20069;-65
2022/08/25 00:23:44;;;;;;;8.23;4.35;;;14.20;99.90;;;;;;4994714;28;20073;-65
2022/08/25 00:26:12;;;;;;;4.47;3.78;;;14.20;99.90;;;;;;4993756;28;20054;-64
2022/08/25 00:28:39;;;;;;;6.30;4.25;;;14.20;99.90;;;;;;4995062;28;20049;-63
2022/08/25 00:31:09;;;;;;;4.45;4.05;;;14.20;99.90;;;;;;4976597;28;20042;-64
2022/08/25 00:33:36;;;;;;;5.25;4.18;;;14.20;99.90;;;;;;4976612;28;20096;-64
2022/08/25 00:36:03;;;;;;;;;;;14.20;99.90;;;;;;4995465;28;20092;-63
2022/08/25 00:38:30;;;;;;;4.10;3.70;;;14.20;99.90;;;;;;4994297;28;19996;-64
2022/08/25 00:41:06;;;;;;;4.43;3.70;;;14.20;99.90;;;;;;4993582;28;20141;-63
2022/08/25 00:43:43;;;;;;;4.15;3.75;;;14.20;99.90;;;;;;4972788;28;20504;-64
2022/08/25 00:46:17;;;;;;;5.95;4.43;;;14.20;99.90;;;;;;4997284;28;20054;-64
2022/08/25 00:48:47;;;;;;;4.72;4.00;;;14.10;99.90;;;;;;4980721;28;20148;-63
2022/08/25 00:51:29;;;;;;;5.53;4.13;;;14.10;99.90;;;;;;4997530;28;20053;-63
2022/08/25 00:53:57;;;;;;;4.68;3.63;;;14.10;99.90;;;;;;4998262;28;20050;-64
2022/08/25 00:56:25;;;;;;;4.82;3.90;;;14.00;99.90;;;;;;4998443;28;20046;-63
2022/08/25 00:58:53;;;;;;;6.43;3.72;;;14.00;99.90;;;;;;4997522;28;20103;-63
2022/08/25 01:01:19;;;;;;;5.80;4.10;;;14.00;99.90;;;;;;4980610;28;20128;-64
2022/08/25 01:03:46;;;;;;;4.75;4.35;;;14.00;99.90;;;;;;4997654;28;20053;-63
2022/08/25 01:06:13;;;;;;;5.38;4.45;;;13.90;99.90;;;;;;4997521;28;20045;-63
2022/08/25 01:08:40;;;;;;;4.78;3.95;;;13.90;99.90;;;;;;4998096;28;20049;-64
2022/08/25 01:11:09;;;;;;;4.30;3.90;;;13.90;99.90;;;;;;4997680;28;20512;-64
2022/08/25 01:13:44;;;;;;;4.95;4.10;;;13.80;99.90;;;;;;4997528;28;20516;-63
2022/08/25 01:16:12;;;;;;;5.72;3.83;;;13.80;99.90;;;;;;4997649;28;20067;-64
2022/08/25 01:18:59;;;;;;;5.85;3.75;;;13.70;99.90;;;;;;4980130;28;20042;-64
2022/08/25 01:21:28;;;;;;;6.30;3.90;;;13.80;99.90;;;;;;4997698;28;20100;-65
2022/08/25 01:23:58;;;;;;;10.55;4.22;;;13.80;99.90;;;;;;4997801;28;20038;-65
2022/08/25 01:26:29;;;;;;;5.20;3.97;;;13.70;99.90;;;;;;4997248;28;20038;-65
2022/08/25 01:31:44;;;;;;;4.90;3.85;;;13.70;99.90;;;;;;4997341;28;20075;-65
2022/08/25 01:34:14;;;;;;;;;;;13.70;99.90;;;;;;4997427;28;20077;-65
2022/08/25 01:36:43;;;;;;;4.32;3.92;;;13.70;99.90;;;;;;4997791;28;19926;-63
2022/08/25 01:39:12;;;;;;;6.38;3.58;;;13.60;99.90;;;;;;4997280;28;20046;-65
2022/08/25 01:41:47;;;;;;;4.40;4.00;;;13.60;99.90;;;;;;4997583;28;20499;-65
2022/08/25 01:44:18;;;;;;;5.07;3.83;;;13.60;99.90;;;;;;4977275;28;20140;-64
2022/08/25 01:46:44;;;;;;;4.72;4.00;;;13.60;99.90;;;;;;4997466;28;20042;-65
2022/08/25 01:49:11;;;;;;;6.47;4.03;;;13.50;99.90;;;;;;4978886;28;20119;-63
2022/08/25 01:51:50;;;;;;;;;;;13.50;99.90;;;;;;4997910;28;20274;-63
2022/08/25 01:54:16;;;;;;;5.15;4.13;;;13.50;99.90;;;;;;4996946;28;19948;-62
2022/08/25 01:56:43;;;;;;;;;;;13.40;99.90;;;;;;4979592;28;20080;-64
2022/08/25 01:59:13;;;;;;;4.68;4.10;;;13.40;99.90;;;;;;4997456;28;19926;-64
2022/08/25 02:01:47;;;;;;;4.32;3.90;;;13.40;99.90;;;;;;4979946;28;20054;-65
2022/08/25 02:04:14;;;;;;;5.97;4.65;;;13.40;99.90;;;;;;4996652;28;20374;-65
2022/08/25 02:06:41;;;;;;;7.40;4.13;;;13.40;99.90;;;;;;4996404;28;20046;-64
2022/08/25 02:09:14;;;;;;;5.05;4.55;;;13.40;99.90;;;;;;4979684;28;20042;-65
2022/08/25 02:11:43;;;;;;;5.95;4.95;;;13.50;99.90;;;;;;4978393;28;20042;-64
2022/08/25 02:14:14;;;;;;;6.65;4.25;;;13.50;99.90;;;;;;4978866;28;20065;-66
2022/08/25 02:16:46;;;;;;;4.57;3.95;;;13.50;99.90;;;;;;4996254;28;20669;-64
2022/08/25 02:19:14;;;;;;;3.85;3.45;;;13.40;99.90;;;;;;4996717;28;20129;-64
2022/08/25 02:21:41;;;;;;;4.60;3.55;;;13.40;99.90;;;;;;4996817;28;20049;-64
2022/08/25 02:24:09;;;;;;;4.22;3.83;;;13.40;99.90;;;;;;4996037;28;20046;-66
2022/08/25 02:26:35;;;;;;;4.82;4.25;;;13.40;99.90;;;;;;4996081;28;20048;-64
2022/08/25 02:29:02;;;;;;;;;;;13.40;99.90;;;;;;4996780;28;20044;-64
2022/08/25 02:31:29;;;;;;;6.95;4.65;;;13.40;99.90;;;;;;4978640;28;19968;-65
2022/08/25 02:33:56;;;;;;;8.38;5.03;;;13.40;99.90;;;;;;4995679;28;20041;-65
2022/08/25 02:36:23;;;;;;;6.70;5.28;;;13.30;99.90;;;;;;4996667;28;20069;-65
2022/08/25 02:38:50;;;;;;;5.10;4.60;;;13.30;99.90;;;;;;4996637;28;20053;-65
2022/08/25 02:41:19;;;;;;;;;;;13.30;99.90;;;;;;4996872;28;20041;-65
2022/08/25 02:43:47;;;;;;;7.65;4.47;;;13.30;99.90;;;;;;4987857;28;19926;-64
2022/08/25 02:46:16;;;;;;;4.82;4.30;;;13.30;99.90;;;;;;4977046;28;20108;-64
2022/08/25 02:48:43;;;;;;;5.20;4.45;;;13.30;99.90;;;;;;4976547;28;20053;-65
2022/08/25 02:51:11;;;;;;;4.70;4.30;;;13.20;99.90;;;;;;4976179;28;20260;-65
2022/08/25 02:53:39;;;;;;;4.40;3.80;;;13.20;99.90;;;;;;4976213;28;20038;-64
2022/08/25 02:56:08;;;;;;;5.50;4.18;;;13.20;99.90;;;;;;4975709;28;20584;-64
2022/08/25 02:58:37;;;;;;;5.43;3.90;;;13.20;99.90;;;;;;4976791;28;20052;-65
2022/08/25 03:01:05;;;;;;;6.28;4.15;;;13.20;99.90;;;;;;4975892;28;20136;-64
2022/08/25 03:03:32;;;;;;;5.80;4.32;;;13.20;99.90;;;;;;4975382;28;20165;-64
2022/08/25 03:06:09;;;;;;;5.45;3.65;;;13.20;99.90;;;;;;4976456;28;20062;-64
2022/08/25 03:08:36;;;;;;;5.88;3.92;;;13.20;99.90;;;;;;4975458;28;20046;-64
2022/08/25 03:11:04;;;;;;;6.40;4.03;;;13.10;99.90;;;;;;4987624;28;20037;-66
2022/08/25 03:13:31;;;;;;;4.60;4.20;;;13.10;99.90;;;;;;4995109;28;20760;-64
2022/08/25 03:15:59;;;;;;;3.92;3.53;;;13.10;99.90;;;;;;4995902;28;20038;-65
2022/08/25 03:18:26;;;;;;;11.15;4.60;;;13.00;99.90;;;;;;4995490;28;20407;-65
2022/08/25 03:20:53;;;;;;;6.07;3.90;;;13.00;99.90;;;;;;4996057;28;20062;-65
2022/08/25 03:23:20;;;;;;;4.45;4.05;;;12.90;99.90;;;;;;4977549;28;20049;-65
2022/08/25 03:28:37;;;;;;;6.90;4.03;;;12.80;99.90;;;;;;4974376;28;20046;-64
2022/08/25 03:31:05;;;;;;;4.22;3.75;;;12.80;99.90;;;;;;4975466;28;20144;-64
2022/08/25 03:33:32;;;;;;;5.22;4.13;;;12.80;99.90;;;;;;4958460;28;20042;-64
2022/08/25 03:35:58;;;;;;;5.20;3.97;;;12.70;99.90;;;;;;4975610;28;20136;-65
2022/08/25 03:38:26;;;;;;;;;;;12.70;99.90;;;;;;4976659;28;20046;-65
2022/08/25 03:40:53;;;;;;;5.20;4.70;;;12.70;99.90;;;;;;4975463;28;19957;-64
2022/08/25 03:43:20;;;;;;;6.60;4.22;;;12.70;99.90;;;;;;4976228;28;20065;-64
2022/08/25 03:45:47;;;;;;;7.95;4.70;;;12.70;99.90;;;;;;4974462;28;20854;-64
2022/08/25 03:48:15;;;;;;;6.60;5.00;;;12.70;99.90;;;;;;4957262;28;20129;-65
2022/08/25 03:50:45;;;;;;;4.40;4.00;;;12.80;99.90;;;;;;4975689;28;20045;-64
2022/08/25 03:53:18;;;;;;;4.38;3.80;;;12.80;99.90;;;;;;4975461;28;20042;-64
2022/08/25 03:55:45;;;;;;;5.13;4.63;;;12.80;99.90;;;;;;4975695;28;20042;-65
2022/08/25 03:58:12;;;;;;;5.28;4.55;;;12.80;99.90;;;;;;4975154;28;20544;-64
2022/08/25 04:00:39;;;;;;;4.97;4.50;;;12.80;99.90;;;;;;4958488;28;20515;-64
2022/08/25 04:03:06;;;;;;;;;;;12.80;99.90;;;;;;4974988;28;20472;-64
2022/08/25 04:05:34;;;;;;;7.55;4.18;;;12.80;99.90;;;;;;4975798;28;19926;-60
2022/08/25 04:08:01;;;;;;;4.45;3.63;;;12.80;99.90;;;;;;4975264;28;20505;-64
2022/08/25 04:10:30;;;;;;;4.55;3.97;;;12.80;99.90;;;;;;4982359;28;20451;-64
2022/08/25 04:12:57;;;;;;;4.45;4.05;;;12.80;99.90;;;;;;4994851;28;20045;-63
2022/08/25 04:15:24;;;;;;;;;;;12.70;99.90;;;;;;4995063;28;20045;-66
2022/08/25 04:17:57;;;;;;;4.00;3.60;;;12.70;99.90;;;;;;4976735;28;19929;-65
2022/08/25 04:20:25;;;;;;;4.63;3.95;;;12.70;99.90;;;;;;4997530;28;20510;-64
2022/08/25 04:22:52;;;;;;;4.13;3.72;;;12.70;99.90;;;;;;4981268;28;20053;-64
2022/08/25 04:25:19;;;;;;;5.88;4.30;;;12.70;99.90;;;;;;4980420;28;20050;-66
2022/08/25 04:27:46;;;;;;;10.32;4.25;;;12.70;99.90;;;;;;4996213;28;20073;-66
2022/08/25 04:30:13;;;;;;;;;;;12.60;99.90;;;;;;4999622;28;20523;-64
2022/08/25 04:32:40;;;;;;;8.20;4.25;;;12.70;99.90;;;;;;4980052;28;20016;-65
2022/08/25 04:35:07;;;;;;;;;;;12.60;99.90;;;;;;4999052;28;20576;-65
2022/08/25 04:37:34;;;;;;;5.65;4.53;;;12.60;99.90;;;;;;4980193;28;19933;-66
2022/08/25 04:40:01;;;;;;;5.07;3.75;;;12.70;99.90;;;;;;4981210;28;20112;-65
2022/08/25 04:42:28;;;;;;;7.07;4.80;;;12.70;99.90;;;;;;4998333;28;20050;-67
2022/08/25 04:44:55;;;;;;;6.45;4.57;;;12.60;99.90;;;;;;4998118;28;20053;-64
2022/08/25 04:47:22;;;;;;;;;;;12.60;99.90;;;;;;4979779;28;20049;-66
2022/08/25 04:49:48;;;;;;;5.03;4.53;;;12.60;99.90;;;;;;4978935;28;20274;-67
2022/08/25 04:52:15;;;;;;;;;;;12.60;99.90;;;;;;4962183;28;20054;-63
2022/08/25 04:54:43;;;;;;;8.13;4.38;;;12.60;99.90;;;;;;4978384;28;19930;-64
2022/08/25 04:57:10;;;;;;;4.70;4.28;;;12.60;99.90;;;;;;4978967;28;20058;-63
2022/08/25 04:59:37;;;;;;;5.60;4.78;;;12.50;99.90;;;;;;4961386;28;20060;-66
2022/08/25 05:02:05;;;;;;;6.82;4.75;;;12.60;99.90;;;;;;4978377;28;20137;-64
2022/08/25 05:04:34;;;;;;;10.23;5.07;;;12.60;99.90;;;;;;4978257;28;20133;-65
2022/08/25 05:07:02;;;;;;;6.30;5.00;;;12.60;99.90;;;;;;4961259;28;20101;-66
2022/08/25 05:09:29;;;;;;;11.23;5.68;;;12.70;99.90;;;;;;4961570;28;20039;-68
2022/08/25 05:12:03;;;;;;;5.38;4.88;;;12.70;99.90;;;;;;4979303;28;20418;-67
2022/08/25 05:14:31;;;;;;;19.98;5.22;;;12.80;99.90;;;;;;4980291;28;20069;-65
2022/08/25 05:16:58;;;;;;;12.35;5.60;;;12.80;99.90;;;;;;4997868;28;20550;-65
2022/08/25 05:19:26;;;;;;;58.28;8.75;;;12.90;99.90;;;;;;4980494;28;20833;-64
2022/08/25 05:21:53;;;;;;;27.75;6.78;;;13.00;99.90;;;;;;4979920;28;20042;-64
2022/08/25 05:24:24;;;;;;;7.63;4.88;;;13.00;99.90;;;;;;4996956;28;20103;-64
2022/08/25 05:26:51;;;;;;;10.48;4.03;;;13.10;99.90;;;;;;4979105;28;20057;-63
2022/08/25 05:29:18;;;;;;;;;;;13.20;99.90;;;;;;4964529;28;20050;-62
2022/08/25 05:31:45;;;;;;;6.80;4.03;;;13.20;99.90;;;;;;4997077;28;19932;-62
2022/08/25 05:34:17;;;;;;;5.32;4.35;;;13.30;99.90;;;;;;4964045;28;20784;-61
2022/08/25 05:36:44;;;;;;;4.15;3.75;;;13.30;99.90;;;;;;4997680;28;20050;-62
2022/08/25 05:39:11;;;;;;;4.30;3.92;;;13.40;99.90;;;;;;4978988;28;20050;-62
2022/08/25 05:41:39;;;;;;;4.22;3.55;;;13.50;99.90;;;;;;4963733;28;20144;-62
2022/08/25 05:44:06;;;;;;;5.90;4.25;;;13.50;99.90;;;;;;4979262;28;20046;-62
2022/08/25 05:46:33;;;;;;;6.90;4.82;;;13.60;99.90;;;;;;4991216;28;20038;-63
2022/08/25 05:49:00;;;;;;;;;;;13.70;99.90;;;;;;4976938;28;20061;-65
2022/08/25 05:51:27;;;;;;;15.30;4.57;;;13.80;99.90;;;;;;4977909;28;19940;-65
2022/08/25 05:53:54;;;;;;;6.03;4.28;;;13.90;99.90;;;;;;4960048;28;20046;-64
2022/08/25 05:56:21;;;;;;;5.47;4.38;;;14.00;99.90;;;;;;4977938;28;20057;-62
2022/08/25 05:58:49;;;;;;;5.03;4.47;;;14.00;99.90;;;;;;4977211;28;20056;-59
2022/08/25 06:04:16;;;;;;;5.10;4.60;;;14.20;99.90;;;;;;4985756;28;20839;-59
2022/08/25 06:06:43;;;;;;;8.40;5.03;;;14.30;99.90;;;;;;4976899;28;20042;-58
2022/08/25 06:09:10;;;;;;;;;;;14.40;99.90;;;;;;4978092;28;20695;-62
2022/08/25 06:11:38;;;;;;;7.30;4.53;;;14.50;99.90;;;;;;4975202;28;19925;-63
2022/08/25 06:14:07;;;;;;;4.88;4.38;;;14.60;99.90;;;;;;4996654;28;21029;-63
2022/08/25 06:16:34;;;;;;;5.82;5.00;;;14.60;99.90;;;;;;4979085;28;20113;-63
2022/08/25 06:19:01;;;;;;;5.03;4.25;;;14.80;99.90;;;;;;4978966;28;20056;-62
2022/08/25 06:21:28;;;;;;;;;;;14.90;99.90;;;;;;4980344;28;20046;-62
2022/08/25 06:23:57;;;;;;;8.07;4.10;;;15.00;99.90;;;;;;4977878;28;19926;-62
2022/08/25 06:26:25;;;;;;;5.70;3.60;;;15.10;99.90;;;;;;4996693;28;20108;-62
2022/08/25 06:28:52;;;;;;;5.10;4.60;;;15.20;99.90;;;;;;4996496;28;20057;-62
2022/08/25 06:31:21;;;;;;;4.95;4.45;;;15.30;99.90;;;;;;4996547;28;20048;-62
2022/08/25 06:33:48;;;;;;;6.13;4.93;;;15.40;99.90;;;;;;4978375;28;20705;-63
2022/08/25 06:36:16;;;;;;;5.38;4.22;;;15.50;99.90;;;;;;4996691;28;20151;-63
2022/08/25 06:38:43;;;;;;;8.48;4.15;;;15.60;99.90;;;;;;4978662;28;20452;-62
2022/08/25 06:41:09;;;;;;;;;;;15.70;99.90;;;;;;4963310;28;20042;-62
2022/08/25 06:43:39;;;;;;;4.80;4.20;;;15.80;99.90;;;;;;4995270;28;19929;-63
2022/08/25 06:46:16;;;;;;;;;;;16.00;99.90;;;;;;4978943;28;20153;-62
2022/08/25 06:48:43;;;;;;;5.60;4.25;;;16.10;99.90;;;;;;4978197;28;19932;-65
2022/08/25 06:51:13;;;;;;;4.68;3.63;;;16.20;99.90;;;;;;4975412;28;20052;-64
2022/08/25 06:53:41;;;;;;;4.47;3.70;;;16.30;99.90;;;;;;4976376;28;20045;-64
2022/08/25 06:56:08;;;;;;;3.92;3.40;;;16.50;99.90;;;;;;4975719;28;20042;-64
2022/08/25 06:58:36;;;;;;;4.97;3.95;;;16.60;99.90;;;;;;4977178;28;20042;-64
2022/08/25 07:01:20;;;;;;;5.07;3.65;;;16.70;99.90;;;;;;4975308;28;20065;-65
2022/08/25 07:03:49;;;;;;;3.90;3.60;;;16.90;99.90;;;;;;4976319;28;20108;-64
2022/08/25 07:06:18;;;;;;;4.72;4.13;;;17.00;99.90;;;;;;4958761;28;20054;-65
2022/08/25 07:08:46;;;;;;;15.30;6.63;;;17.20;99.90;;;;;;4976572;28;20935;-65
2022/08/25 07:11:15;;;;;;;5.10;4.57;;;17.30;99.90;;;;;;4971214;28;20151;-66
2022/08/25 07:13:44;;;;;;;5.97;3.90;;;17.40;99.90;;;;;;4977520;28;20490;-65
2022/08/25 07:16:14;;;;;;;7.13;5.45;;;17.60;99.90;;;;;;4995635;28;20129;-65
2022/08/25 07:18:41;;;;;;;5.82;4.72;;;17.80;99.90;;;;;;4945845;28;20524;-64
2022/08/25 07:21:11;;;;;;;5.40;4.40;;;17.90;99.90;;;;;;4978452;28;20730;-62
2022/08/25 07:23:39;;;;;;;4.70;4.30;;;18.00;99.90;;;;;;4977261;28;20492;-63
2022/08/25 07:26:13;;;;;;;16.10;6.63;;;18.20;99.90;;;;;;4977974;28;20531;-65
2022/08/25 07:29:00;;;;;;;6.28;4.72;;;18.30;99.90;;;;;;4995430;28;20077;-62
2022/08/25 07:31:28;;;;;;;6.03;5.25;;;18.40;99.90;;;;;;4977437;28;20046;-63
2022/08/25 07:36:43;;;;;;;7.82;4.40;;;18.70;99.90;;;;;;4995331;28;20583;-64
2022/08/25 07:39:10;;;;;;;6.95;5.18;;;18.80;99.90;;;;;;4978281;28;20858;-64
2022/08/25 07:41:40;;;;;;;9.07;4.93;;;18.90;99.90;;;;;;4977715;28;20041;-62
2022/08/25 07:44:08;;;;;;;6.95;4.15;;;19.00;99.90;;;;;;4977521;28;20049;-65
2022/08/25 07:46:36;;;;;;;8.07;4.15;;;19.20;99.90;;;;;;4977963;28;20049;-64
2022/08/25 07:49:05;;;;;;;4.75;4.25;;;19.50;99.90;;;;;;4949119;28;20049;-63
2022/08/25 07:51:45;;;;;;;5.63;4.30;;;20.30;99.90;;;;;;4960032;28;20050;-64
2022/08/25 07:54:33;;;;;;;7.57;4.78;;;21.10;99.90;;;;;;4963675;28;20046;-63
2022/08/25 07:57:05;;;;;;;10.48;4.70;;;21.80;99.90;;;;;;4977130;28;20050;-63
2022/08/25 07:59:32;;;;;;;7.38;3.80;;;22.40;99.90;;;;;;4977745;28;20509;-65
2022/08/25 08:02:11;;;;;;;8.18;4.25;;;22.80;99.90;;;;;;4994903;28;20049;-65
2022/08/25 08:04:49;;;;;;;5.25;4.03;;;23.30;99.90;;;;;;4977200;28;22289;-63
2022/08/25 08:07:19;;;;;;;7.82;4.68;;;23.70;99.90;;;;;;4993523;28;20057;-63
2022/08/25 08:09:49;;;;;;;4.15;3.70;;;24.10;99.90;;;;;;4992940;28;20917;-64
2022/08/25 08:12:32;;;;;;;5.25;3.35;;;24.40;99.90;;;;;;4979612;28;20058;-63
2022/08/25 08:15:00;;;;;;;4.60;3.58;;;24.90;99.90;;;;;;4994141;28;20046;-64
2022/08/25 08:17:27;;;;;;;6.95;3.97;;;25.20;95.90;;;;;;4991824;28;20120;-63
2022/08/25 08:19:54;;;;;;;5.65;3.78;;;25.50;94.20;;;;;;4993623;28;20052;-65
2022/08/25 08:22:22;;;;;;;4.35;3.40;;;25.70;91.50;;;;;;4995125;28;20154;-63
2022/08/25 08:24:49;;;;;;;4.85;3.35;;;26.00;90.90;;;;;;4994115;28;20891;-65
2022/08/25 08:27:23;;;;;;;6.07;4.20;;;26.20;91.00;;;;;;4994725;28;20076;-64
2022/08/25 08:29:51;;;;;;;5.72;3.10;;;26.50;90.00;;;;;;4993316;28;20042;-64
2022/08/25 08:32:18;;;;;;;4.20;3.55;;;26.60;84.70;;;;;;4994616;28;20045;-62
2022/08/25 08:34:51;;;;;;;4.40;3.08;;;26.80;83.30;;;;;;4978288;28;20046;-61
2022/08/25 08:37:18;;;;;;;3.25;2.90;;;27.00;78.20;;;;;;4994939;28;20049;-63
2022/08/25 08:39:50;;;;;;;5.75;3.40;;;27.10;78.40;;;;;;4994226;28;20793;-65
2022/08/25 08:42:35;;;;;;;6.53;3.35;;;27.20;76.40;;;;;;4993958;28;20158;-67
2022/08/25 08:45:03;;;;;;;12.25;3.72;;;27.30;75.00;;;;;;4995086;28;20049;-63
2022/08/25 08:47:46;;;;;;;3.22;2.67;;;27.40;73.40;;;;;;4995038;28;20049;-62
2022/08/25 08:50:32;;;;;;;7.10;3.25;;;27.40;72.70;;;;;;4982429;28;20053;-64
2022/08/25 08:53:06;;;;;;;6.50;2.80;;;27.40;70.00;;;;;;4991771;28;20048;-61
2022/08/25 08:55:50;;;;;;;5.10;3.60;;;27.40;72.10;;;;;;4993197;28;20054;-61
2022/08/25 08:58:38;;;;;;;7.15;3.55;;;27.40;74.10;;;;;;4994593;28;21029;-63
2022/08/25 09:01:11;;;;;;;8.90;4.18;;;27.50;74.70;;;;;;4994515;28;20072;-63
2022/08/25 09:03:51;;;;;;;9.93;3.45;;;27.60;74.60;;;;;;4993569;28;20042;-60
2022/08/25 09:06:27;;;;;;;3.88;3.05;;;27.70;73.60;;;;;;4995018;28;20046;-65
2022/08/25 09:08:57;;;;;;;7.28;3.47;;;27.80;71.70;;;;;;4998453;28;20117;-64
2022/08/25 09:11:42;;;;;;;7.13;3.75;;;27.90;71.40;;;;;;4996792;28;20052;-64
2022/08/25 09:14:26;;;;;;;11.82;3.90;;;28.00;72.40;;;;;;4983437;28;20038;-63
2022/08/25 09:17:04;;;;;;;10.93;3.67;;;28.10;73.60;;;;;;4981841;28;20651;-64
2022/08/25 09:20:01;;;;;;;5.32;4.07;;;28.20;73.20;;;;;;4997919;28;20578;-63
2022/08/25 09:22:41;;;;;;;9.95;3.63;;;28.30;72.20;;;;;;4996717;28;20060;-63
2022/08/25 09:25:33;;;;;;;5.03;4.35;;;28.30;74.20;;;;;;4997281;28;20145;-64
2022/08/25 09:28:44;;;;;;;6.25;4.75;;;28.30;73.20;;;;;;4997832;28;20964;-63
2022/08/25 09:31:37;;;;;;;7.25;4.15;;;28.40;75.10;;;;;;4996760;28;20049;-64
2022/08/25 09:34:10;;;;;;;13.95;5.95;;;28.40;77.00;;;;;;4996404;28;20762;-65
2022/08/25 09:36:38;;;;;;;9.10;4.88;;;28.50;78.80;;;;;;4997328;28;20045;-64
2022/08/25 09:39:06;;;;;;;11.48;5.00;;;28.60;79.60;;;;;;4980454;28;20354;-64
2022/08/25 09:41:46;;;;;;;6.20;4.05;;;28.80;80.10;;;;;;4996537;28;20515;-64
2022/08/25 09:44:32;;;;;;;7.50;4.53;;;28.90;77.90;;;;;;4995758;28;20139;-64
2022/08/25 09:47:17;;;;;;;5.93;3.78;;;29.10;74.40;;;;;;4996791;28;20065;-64
2022/08/25 09:49:50;;;;;;;9.43;5.75;;;29.20;70.40;;;;;;4995550;28;20042;-64
2022/08/25 09:52:22;;;;;;;10.07;5.50;;;29.30;75.20;;;;;;4992180;28;20038;-64
2022/08/25 09:54:53;;;;;;;9.85;4.95;;;29.30;78.30;;;;;;4996756;28;20857;-64
2022/08/25 09:57:35;;;;;;;6.13;5.38;;;29.30;75.90;;;;;;4979461;28;20074;-65
2022/08/25 10:00:27;;;;;;;10.68;6.53;;;29.40;77.10;;;;;;4997021;28;20045;-64
2022/08/25 10:03:14;;;;;;;7.35;4.32;;;29.50;75.80;;;;;;4996988;28;20046;-64
2022/08/25 10:06:10;;;;;;;10.20;4.68;;;29.70;73.30;;;;;;4996238;28;20606;-65
2022/08/25 10:08:39;;;;;;;4.55;4.15;;;29.90;77.20;;;;;;4994993;28;20056;-64
2022/08/25 10:11:11;;;;;;;13.63;4.95;;;30.00;73.50;;;;;;4994857;28;20048;-65
2022/08/25 10:13:50;;;;;;;5.63;4.40;;;30.10;72.60;;;;;;4994836;28;20054;-65
2022/08/25 10:16:25;;;;;;;7.85;4.00;;;30.30;71.80;;;;;;4996351;28;20049;-64
2022/08/25 10:19:10;;;;;;;11.63;4.97;;;30.40;70.40;;;;;;4995272;28;20057;-64
2022/08/25 10:21:41;;;;;;;5.43;4.30;;;30.50;67.50;;;;;;4978225;28;20050;-64
2022/08/25 10:24:11;;;;;;;4.60;4.15;;;30.40;59.50;;;;;;4996202;28;20104;-64
2022/08/25 10:26:56;;;;;;;4.55;3.65;;;30.20;58.10;;;;;;4996251;28;20571;-65
2022/08/25 10:29:33;;;;;;;6.60;3.47;;;30.00;61.50;;;;;;4996656;28;20056;-65
2022/08/25 10:32:08;;;;;;;;;;;30.10;62.80;;;;;;4995328;28;20128;-65
2022/08/25 10:34:48;;;;;;;6.70;4.30;;;30.20;65.70;;;;;;4994889;28;19972;-64
2022/08/25 10:37:25;;;;;;;5.15;3.70;;;30.50;68.80;;;;;;4996692;28;20062;-65
2022/08/25 10:40:16;;;;;;;4.45;3.80;;;30.60;63.00;;;;;;4996936;28;20349;-65
2022/08/25 10:43:11;;;;;;;6.10;3.15;;;30.80;60.50;;;;;;4994896;28;20988;-65
2022/08/25 10:45:48;;;;;;;7.65;5.72;;;30.90;60.80;;;;;;4994521;28;20052;-64
2022/08/25 10:48:35;;;;;;;3.35;2.92;;;30.90;64.70;;;;;;4993028;28;20048;-64
2022/08/25 10:51:07;;;;;;;5.72;3.05;;;30.90;57.90;;;;;;4991863;28;20058;-64
2022/08/25 10:54:04;;;;;;;6.57;2.33;;;30.90;55.80;;;;;;4991953;28;20042;-65
2022/08/25 10:56:41;;;;;;;4.78;3.60;;;30.90;54.90;;;;;;4995796;28;20046;-64
2022/08/25 10:59:31;;;;;;;10.10;4.78;;;31.00;55.40;;;;;;4996150;28;20053;-64
2022/08/25 11:02:21;;;;;;;6.72;5.13;;;31.00;61.70;;;;;;4995511;28;20041;-65
2022/08/25 11:04:51;;;;;;;10.25;5.68;;;31.00;60.20;;;;;;4978964;28;20057;-64
2022/08/25 11:07:34;;;;;;;5.05;4.55;;;31.00;61.50;;;;;;4995327;28;20038;-65
2022/08/25 11:10:08;;;;;;;5.05;4.60;;;31.10;60.30;;;;;;4994467;28;20046;-65
2022/08/25 11:12:43;;;;;;;7.10;4.35;;;31.20;61.80;;;;;;4995217;28;20052;-66
2022/08/25 11:15:20;;;;;;;4.80;4.20;;;31.20;60.50;;;;;;4995068;28;20046;-65
2022/08/25 11:18:06;;;;;;;5.28;4.15;;;31.20;61.10;;;;;;4993821;28;20765;-66
2022/08/25 11:20:47;;;;;;;4.07;3.67;;;31.20;60.50;;;;;;4994115;28;20042;-65
2022/08/25 11:23:56;;;;;;;10.90;5.22;;;31.30;62.60;;;;;;4994826;28;20069;-65
2022/08/25 11:26:32;;;;;;;6.50;4.65;;;31.50;64.60;;;;;;4937235;28;20047;-65
2022/08/25 11:29:16;;;;;;;9.57;4.40;;;31.60;60.30;;;;;;4973546;28;20059;-64
2022/08/25 11:31:48;;;;;;;6.55;4.70;;;31.70;59.50;;;;;;4975674;28;20520;-65
2022/08/25 11:34:21;;;;;;;5.55;3.50;;;31.80;60.00;;;;;;4974039;28;20038;-65
2022/08/25 11:37:06;;;;;;;10.75;3.97;;;31.70;60.00;;;;;;4974604;28;20049;-63
2022/08/25 11:40:13;;;;;;;6.43;3.28;;;31.80;59.90;;;;;;4973989;28;20137;-63
2022/08/25 11:42:59;;;;;;;5.25;3.47;;;31.80;57.90;;;;;;4974246;28;20053;-65
2022/08/25 11:45:36;;;;;;;5.68;3.78;;;31.70;59.20;;;;;;4993389;28;20647;-62
2022/08/25 11:48:35;;;;;;;7.25;4.20;;;31.70;59.30;;;;;;4994551;28;20054;-61
2022/08/25 11:51:27;;;;;;;4.65;2.75;;;31.70;57.90;;;;;;4995278;28;20245;-62
2022/08/25 11:54:27;;;;;;;8.20;2.92;;;31.70;55.80;;;;;;4974779;28;20046;-62
2022/08/25 11:57:00;;;;;;;5.20;2.97;;;31.80;55.40;;;;;;4973576;28;20061;-62
2022/08/25 12:00:03;;;;;;;5.07;3.00;;;31.90;54.50;;;;;;4975487;28;20049;-65
2022/08/25 12:02:47;;;;;;;4.13;3.72;;;32.10;55.30;;;;;;4974642;28;20108;-64
2022/08/25 12:05:20;;;;;;;3.70;3.13;;;32.00;51.50;;;;;;4975534;28;20046;-63
2022/08/25 12:11:09;;;;;;;9.43;2.97;;;31.70;50.50;;;;;;4984327;28;20864;-65
2022/08/25 12:14:14;;;;;;;5.60;3.38;;;31.40;50.80;;;;;;4994077;28;20053;-65
2022/08/25 12:16:59;;;;;;;7.10;2.70;;;31.20;50.50;;;;;;4993612;28;20034;-65
2022/08/25 12:19:35;;;;;;;3.28;2.92;;;31.00;50.70;;;;;;4994575;28;20042;-64
2022/08/25 12:22:03;;;;;;;4.97;2.70;;;31.10;53.40;;;;;;4995157;28;20046;-64
2022/08/25 12:24:42;;;;;;;7.53;3.25;;;31.20;52.20;;;;;;4994687;28;20073;-64
2022/08/25 12:27:58;;;;;;;5.07;3.25;;;31.30;54.10;;;;;;4994250;28;20049;-66
2022/08/25 12:30:31;;;;;;;3.75;2.75;;;31.50;52.20;;;;;;4994542;28;20297;-64
2022/08/25 12:33:38;;;;;;;3.35;3.05;;;31.60;50.70;;;;;;4993501;28;20133;-65
2022/08/25 12:36:08;;;;;;;4.00;2.75;;;31.70;52.60;;;;;;4992900;28;20053;-65
2022/08/25 12:38:48;;;;;;;3.85;3.00;;;31.70;51.20;;;;;;4994780;28;20042;-63
2022/08/25 12:41:29;;;;;;;7.40;2.85;;;31.70;52.00;;;;;;4997224;28;20048;-65
2022/08/25 12:44:38;;;;;;;4.22;3.40;;;31.80;52.90;;;;;;4997249;28;20461;-63
2022/08/25 12:47:23;;;;;;;5.80;2.95;;;31.90;53.00;;;;;;4955971;28;20677;-66
2022/08/25 12:49:50;;;;;;;4.00;2.55;;;31.80;52.20;;;;;;4992237;28;20045;-65
2022/08/25 12:52:22;;;;;;;8.00;2.92;;;31.80;52.70;;;;;;4998532;28;20120;-64
2022/08/25 12:54:58;;;;;;;3.55;3.08;;;31.90;52.00;;;;;;4978256;28;20045;-64
2022/08/25 12:57:45;;;;;;;5.85;3.53;;;31.90;53.20;;;;;;4978999;28;20050;-66
2022/08/25 13:00:19;;;;;;;;;;;32.00;51.40;;;;;;4977153;28;20100;-66
2022/08/25 13:02:55;;;;;;;5.47;3.83;;;31.90;50.10;;;;;;4977187;28;19937;-65
2022/08/25 13:05:39;;;;;;;4.05;2.83;;;31.80;51.30;;;;;;4976773;28;20057;-66
2022/08/25 13:08:25;;;;;;;5.97;3.05;;;31.90;53.20;;;;;;4977493;28;20054;-63
2022/08/25 13:11:20;;;;;;;5.55;3.50;;;32.00;52.20;;;;;;4987965;28;20052;-66
2022/08/25 13:14:03;;;;;;;5.13;3.67;;;32.20;53.90;;;;;;4997733;28;20093;-64
2022/08/25 13:16:32;;;;;;;5.82;3.10;;;32.20;52.20;;;;;;4997895;28;20046;-66
2022/08/25 13:19:04;;;;;;;5.72;2.72;;;32.20;52.50;;;;;;4996709;28;20042;-63
2022/08/25 13:21:35;;;;;;;4.65;3.28;;;32.30;52.50;;;;;;4997721;28;20153;-66
2022/08/25 13:24:11;;;;;;;8.20;3.08;;;32.30;49.80;;;;;;4997795;28;20068;-65
2022/08/25 13:26:41;;;;;;;4.90;2.92;;;32.40;50.80;;;;;;4997012;28;20050;-64
2022/08/25 13:29:19;;;;;;;5.18;3.00;;;32.50;49.90;;;;;;4996849;28;20203;-66
2022/08/25 13:32:13;;;;;;;3.00;2.67;;;32.60;50.30;;;;;;4995781;28;20069;-64
2022/08/25 13:34:41;;;;;;;4.38;3.03;;;32.60;46.90;;;;;;4993345;28;20049;-66
2022/08/25 13:37:27;;;;;;;3.53;2.78;;;32.50;47.40;;;;;;4995860;28;20596;-66